Time;durP1;ratioP1;P1;durP2;ratioP2;P2;SDS_P1;SDS_P2;PMS_P1;PMS_P2;Temp;Humidity;BMP_temperature;BMP_pressure;BME280_temperature;BME280_humidity;BME280_pressure;Samples;Min_cycle;Max_cycle;Signal;HPM_P1;HPM_P2
2023/06/24 03:26:56;;;;;;;4.90;3.92;;;19.10;99.90;;;;;;5131784;27;20319;-90
2023/06/24 03:29:23;;;;;;;8.30;4.15;;;19.50;99.90;;;;;;5113365;28;20024;-93
2023/06/24 03:31:48;;;;;;;10.27;4.38;;;19.50;99.90;;;;;;5130999;28;20057;-91
2023/06/24 03:34:16;;;;;;;9.30;4.28;;;19.40;99.90;;;;;;5113139;28;20019;-89
2023/06/24 03:36:42;;;;;;;10.55;4.22;;;19.40;99.90;;;;;;5112995;28;20038;-89
2023/06/24 03:39:08;;;;;;;11.38;4.45;;;19.40;99.90;;;;;;5113053;28;20428;-93
2023/06/24 03:41:33;;;;;;;11.65;5.00;;;19.50;99.90;;;;;;5113198;28;20471;-91
2023/06/24 03:43:59;;;;;;;11.02;4.32;;;19.50;99.90;;;;;;5112762;28;20033;-92
2023/06/24 03:46:25;;;;;;;11.57;4.07;;;19.60;99.90;;;;;;5113470;28;20415;-91
2023/06/24 03:48:51;;;;;;;7.68;4.90;;;19.60;99.90;;;;;;5112937;28;20024;-91
2023/06/24 03:51:17;;;;;;;5.90;4.28;;;19.60;99.90;;;;;;5112863;28;20490;-92
2023/06/24 03:53:42;;;;;;;6.40;4.50;;;19.60;99.90;;;;;;5131149;28;20027;-90
2023/06/24 03:56:08;;;;;;;9.45;4.80;;;19.60;99.90;;;;;;5112660;28;20032;-87
2023/06/24 03:58:34;;;;;;;6.55;4.75;;;19.70;99.90;;;;;;5112927;28;20065;-89
2023/06/24 04:01:01;;;;;;;8.25;4.60;;;19.70;99.90;;;;;;5112600;28;20028;-89
2023/06/24 04:03:27;;;;;;;6.90;4.63;;;19.80;99.90;;;;;;5112560;28;20020;-90
2023/06/24 04:05:54;;;;;;;5.80;3.75;;;19.90;99.90;;;;;;5116268;27;20098;-87
2023/06/24 04:08:20;;;;;;;9.88;5.28;;;20.00;99.90;;;;;;5137276;27;20030;-89
2023/06/24 04:10:46;;;;;;;5.50;3.92;;;20.20;99.90;;;;;;5114997;27;20032;-88
2023/06/24 04:13:12;;;;;;;8.23;4.25;;;20.20;99.90;;;;;;5112796;28;20030;-90
2023/06/24 04:15:37;;;;;;;5.18;3.78;;;20.20;99.90;;;;;;5107967;28;20507;-89
2023/06/24 04:18:03;;;;;;;10.48;4.03;;;20.20;99.90;;;;;;5092140;28;20024;-87
2023/06/24 04:20:29;;;;;;;11.40;3.90;;;20.20;99.90;;;;;;5091883;28;20028;-89
2023/06/24 04:22:54;;;;;;;10.50;3.97;;;20.20;99.90;;;;;;5088689;28;21077;-86
2023/06/24 04:25:20;;;;;;;6.85;4.00;;;20.10;99.90;;;;;;5080390;28;20633;-87
2023/06/24 04:27:46;;;;;;;10.52;4.05;;;20.00;99.90;;;;;;5066845;28;20111;-89
2023/06/24 04:30:12;;;;;;;10.25;3.42;;;20.10;99.90;;;;;;5092067;28;20024;-89
2023/06/24 04:32:37;;;;;;;18.25;4.10;;;20.20;99.90;;;;;;5078580;28;20472;-88
2023/06/24 04:35:06;;;;;;;11.27;3.00;;;20.40;99.90;;;;;;5078180;28;20032;-88
2023/06/24 04:37:32;;;;;;;15.95;3.10;;;20.60;99.90;;;;;;5072274;28;20450;-88
2023/06/24 04:39:58;;;;;;;13.13;2.72;;;20.80;99.90;;;;;;5057667;28;20025;-92
2023/06/24 04:42:24;;;;;;;11.93;3.60;;;21.00;99.90;;;;;;5057760;28;20082;-89
2023/06/24 04:44:50;;;;;;;12.32;2.28;;;21.20;99.90;;;;;;5057720;28;20024;-87
2023/06/24 04:47:17;;;;;;;5.75;2.10;;;21.40;99.90;;;;;;5075796;28;20063;-90
2023/06/24 04:49:43;;;;;;;5.75;2.88;;;21.60;99.90;;;;;;5058039;28;20078;-85
2023/06/24 04:52:11;;;;;;;10.80;2.60;;;21.70;99.90;;;;;;5077724;28;20080;-85
2023/06/24 04:54:37;;;;;;;3.22;2.00;;;21.80;99.90;;;;;;5074977;28;20043;-91
2023/06/24 04:57:03;;;;;;;11.98;2.65;;;22.00;99.90;;;;;;5061360;28;20029;-92
2023/06/24 04:59:28;;;;;;;4.28;2.42;;;22.10;99.90;;;;;;5080834;28;20032;-92
2023/06/24 05:01:54;;;;;;;13.13;2.95;;;22.10;99.90;;;;;;5079850;28;20063;-91
2023/06/24 05:04:20;;;;;;;20.15;2.60;;;22.10;99.90;;;;;;5077759;28;20032;-93
2023/06/24 05:06:45;;;;;;;5.28;2.20;;;22.10;99.90;;;;;;5075929;28;20027;-92
2023/06/24 05:09:13;;;;;;;9.93;2.58;;;22.00;99.90;;;;;;5075456;28;20032;-92
2023/06/24 05:11:40;;;;;;;10.30;2.67;;;22.10;99.90;;;;;;5057468;28;20495;-91
2023/06/24 05:14:06;;;;;;;9.27;2.35;;;22.20;99.90;;;;;;5057477;28;20025;-92
2023/06/24 05:16:31;;;;;;;7.75;2.90;;;22.20;99.90;;;;;;5075254;28;20042;-92
2023/06/24 05:18:57;;;;;;;9.18;2.88;;;22.20;99.90;;;;;;5076155;28;20504;-91
2023/06/24 05:21:23;;;;;;;14.63;2.50;;;22.10;99.90;;;;;;5058953;28;20111;-91
2023/06/24 05:23:48;;;;;;;6.95;2.50;;;22.00;99.90;;;;;;5075946;28;20047;-92
2023/06/24 05:26:14;;;;;;;7.05;2.70;;;21.90;99.90;;;;;;5057267;28;20044;-92
2023/06/24 05:28:40;;;;;;;4.25;2.25;;;21.90;99.90;;;;;;5075238;28;20024;-92
2023/06/24 05:31:05;;;;;;;6.93;2.25;;;21.90;99.90;;;;;;5057540;28;20024;-92
2023/06/24 05:33:31;;;;;;;8.23;2.72;;;22.00;99.90;;;;;;5075131;28;20030;-91
2023/06/24 05:35:57;;;;;;;4.93;2.53;;;22.30;99.90;;;;;;5056941;28;20037;-89
2023/06/24 05:38:23;;;;;;;5.03;2.25;;;22.50;99.90;;;;;;5074895;28;20020;-91
2023/06/24 05:40:48;;;;;;;6.15;1.98;;;22.50;99.90;;;;;;5074711;28;20032;-90
2023/06/24 05:43:14;;;;;;;9.15;2.88;;;22.60;99.90;;;;;;5057247;28;20046;-92
2023/06/24 05:45:40;;;;;;;11.63;2.45;;;22.80;99.90;;;;;;5075300;28;20028;-90
2023/06/24 05:48:05;;;;;;;4.40;2.67;;;23.00;99.90;;;;;;5074659;28;20033;-92
2023/06/24 05:50:31;;;;;;;9.60;2.65;;;23.10;99.90;;;;;;5075956;28;20108;-92
2023/06/24 05:52:57;;;;;;;7.47;2.83;;;23.20;99.90;;;;;;5078263;28;20040;-92
2023/06/24 05:55:23;;;;;;;6.93;2.75;;;23.50;99.90;;;;;;5076863;28;20056;-93
2023/06/24 05:57:49;;;;;;;7.13;3.33;;;23.70;99.90;;;;;;5077497;28;20031;-92
2023/06/24 06:00:15;;;;;;;8.63;2.75;;;24.50;99.90;;;;;;5057782;28;20416;-92
2023/06/24 06:02:40;;;;;;;9.40;2.58;;;25.30;99.90;;;;;;5058424;28;20400;-94
2023/06/24 06:05:06;;;;;;;10.48;3.75;;;26.10;99.90;;;;;;5058169;28;20040;-92
2023/06/24 06:07:32;;;;;;;8.00;4.35;;;26.50;99.90;;;;;;5057837;28;20020;-93
2023/06/24 06:09:57;;;;;;;5.68;4.07;;;26.10;99.90;;;;;;5058643;28;20024;-93
2023/06/24 06:12:23;;;;;;;14.45;4.10;;;25.60;99.90;;;;;;5076401;28;20019;-87
2023/06/24 06:14:49;;;;;;;6.40;4.00;;;25.40;99.90;;;;;;5081163;28;20017;-92
2023/06/24 06:17:15;;;;;;;8.52;4.85;;;25.20;99.90;;;;;;5098748;28;20036;-89
2023/06/24 06:19:41;;;;;;;8.20;4.88;;;24.90;99.90;;;;;;5081191;28;20035;-92
2023/06/24 06:22:07;;;;;;;9.50;3.70;;;24.70;99.90;;;;;;5080105;28;20059;-94
2023/06/24 06:24:33;;;;;;;8.48;4.00;;;25.00;99.90;;;;;;5056858;28;20024;-93
2023/06/24 06:26:59;;;;;;;11.60;4.80;;;25.80;99.90;;;;;;5055815;28;20029;-93
2023/06/24 06:29:25;;;;;;;5.82;4.50;;;26.50;99.90;;;;;;5055612;28;20048;-93
2023/06/24 06:31:52;;;;;;;8.57;5.10;;;26.80;97.50;;;;;;5061622;28;20032;-93
2023/06/24 06:34:18;;;;;;;11.40;5.20;;;27.40;94.40;;;;;;5062438;28;20020;-92
2023/06/24 06:36:44;;;;;;;9.18;5.22;;;28.00;92.10;;;;;;5055550;28;20034;-92
2023/06/24 06:39:09;;;;;;;7.53;4.30;;;28.90;88.30;;;;;;5062081;28;20098;-91
2023/06/24 06:41:35;;;;;;;8.73;3.95;;;29.90;84.30;;;;;;5077970;28;20107;-92
2023/06/24 06:44:00;;;;;;;6.85;3.90;;;30.90;78.80;;;;;;5055304;28;20059;-91
2023/06/24 06:46:26;;;;;;;6.70;4.05;;;31.40;75.80;;;;;;5054998;28;20119;-91
2023/06/24 06:48:52;;;;;;;7.05;3.60;;;31.40;73.10;;;;;;5055629;28;20020;-93
2023/06/24 06:51:18;;;;;;;13.20;4.25;;;31.20;72.40;;;;;;5056400;28;20135;-92
2023/06/24 06:53:44;;;;;;;8.48;4.45;;;31.40;71.40;;;;;;5056169;28;20405;-90
2023/06/24 06:56:17;;;;;;;12.45;5.30;;;31.40;68.70;;;;;;5058760;28;20032;-92
2023/06/24 06:58:43;;;;;;;12.68;5.65;;;31.60;68.10;;;;;;5055910;28;20078;-91
2023/06/24 07:01:09;;;;;;;14.07;8.18;;;30.80;69.80;;;;;;5074258;28;20029;-90
2023/06/24 07:03:34;;;;;;;15.60;7.88;;;30.50;70.60;;;;;;5074890;28;20028;-90
2023/06/24 07:06:00;;;;;;;18.05;10.98;;;30.00;72.20;;;;;;5056579;28;20036;-91
2023/06/24 07:08:25;;;;;;;14.13;10.88;;;29.30;73.90;;;;;;5072940;28;20534;-91
2023/06/24 07:10:51;;;;;;;15.55;11.95;;;28.40;77.20;;;;;;5073398;28;20495;-92
2023/06/24 07:13:17;;;;;;;15.35;11.65;;;27.70;80.50;;;;;;5057083;28;20111;-94
2023/06/24 07:15:43;;;;;;;18.88;12.00;;;27.50;84.00;;;;;;5075413;28;20072;-91
2023/06/24 07:18:08;;;;;;;12.88;10.63;;;27.60;81.30;;;;;;5076309;28;20079;-92
2023/06/24 07:20:34;;;;;;;19.63;12.55;;;27.70;82.30;;;;;;5075720;28;20028;-91
2023/06/24 07:22:59;;;;;;;16.65;13.98;;;28.00;83.00;;;;;;5075093;28;20115;-91
2023/06/24 07:25:26;;;;;;;15.88;13.77;;;28.00;82.10;;;;;;5055300;28;20103;-91
2023/06/24 07:27:51;;;;;;;18.05;13.35;;;27.70;83.60;;;;;;5053235;28;20025;-90
2023/06/24 07:30:17;;;;;;;15.32;12.82;;;27.30;84.70;;;;;;5052591;28;20025;-91
2023/06/24 07:32:43;;;;;;;20.33;13.73;;;27.00;86.30;;;;;;5051804;28;20021;-91
2023/06/24 07:35:09;;;;;;;13.60;12.18;;;26.80;88.80;;;;;;5052561;28;20037;-91
2023/06/24 07:37:35;;;;;;;18.20;12.52;;;26.60;89.80;;;;;;5054079;28;20063;-93
2023/06/24 07:40:02;;;;;;;22.15;13.73;;;27.10;90.00;;;;;;5053621;28;20471;-92
2023/06/24 07:42:28;;;;;;;16.70;13.10;;;27.60;87.40;;;;;;5052217;28;20021;-92
2023/06/24 07:44:54;;;;;;;19.67;13.52;;;28.80;85.80;;;;;;5053471;28;20036;-91
2023/06/24 07:47:19;;;;;;;15.90;12.88;;;29.50;80.60;;;;;;5056165;28;20104;-93
2023/06/24 07:49:45;;;;;;;22.25;13.73;;;29.80;76.80;;;;;;5052858;28;20443;-92
2023/06/24 07:52:11;;;;;;;16.40;12.50;;;29.90;77.20;;;;;;5052962;28;20059;-92
2023/06/24 07:54:36;;;;;;;14.75;13.32;;;30.00;78.90;;;;;;5054272;28;20406;-93
2023/06/24 07:57:03;;;;;;;22.88;12.68;;;30.40;76.90;;;;;;5052273;28;20554;-89
2023/06/24 07:59:28;;;;;;;16.02;10.55;;;30.80;74.00;;;;;;5052224;28;20132;-90
2023/06/24 08:01:54;;;;;;;17.58;11.05;;;30.90;72.70;;;;;;5053180;28;20064;-89
2023/06/24 08:04:19;;;;;;;13.75;10.27;;;31.40;71.00;;;;;;5056532;28;20027;-91
2023/06/24 08:06:45;;;;;;;13.40;10.60;;;31.50;70.90;;;;;;5056904;28;20064;-91
2023/06/24 08:09:11;;;;;;;22.23;11.77;;;31.20;72.30;;;;;;5057804;28;20488;-92
2023/06/24 08:11:37;;;;;;;14.77;10.52;;;31.10;70.40;;;;;;5073112;28;20029;-91
2023/06/24 08:14:03;;;;;;;14.68;10.13;;;30.90;72.00;;;;;;5059718;28;20521;-89
2023/06/24 08:16:29;;;;;;;11.40;10.18;;;30.90;72.10;;;;;;5055750;28;20041;-91
2023/06/24 08:18:55;;;;;;;12.65;10.25;;;30.90;72.60;;;;;;5064416;28;20051;-91
2023/06/24 08:21:20;;;;;;;20.25;8.52;;;30.70;74.40;;;;;;5056990;28;20051;-92
2023/06/24 08:23:48;;;;;;;8.73;7.82;;;31.00;73.40;;;;;;5055963;28;20051;-92
2023/06/24 08:26:13;;;;;;;14.38;7.28;;;31.50;71.30;;;;;;5056422;28;20052;-93
2023/06/24 08:28:39;;;;;;;13.30;8.18;;;31.90;67.70;;;;;;5060292;28;20401;-93
2023/06/24 08:31:05;;;;;;;16.75;9.60;;;31.70;69.70;;;;;;5059683;28;20028;-92
2023/06/24 08:33:30;;;;;;;19.48;10.80;;;31.80;70.80;;;;;;5062198;28;20021;-91
2023/06/24 08:35:56;;;;;;;11.13;9.82;;;31.50;71.10;;;;;;5078759;28;20044;-91
2023/06/24 08:38:21;;;;;;;17.17;10.05;;;31.30;71.50;;;;;;5068615;28;20036;-91
2023/06/24 08:40:49;;;;;;;14.63;9.40;;;31.70;71.20;;;;;;5062994;28;20039;-93
2023/06/24 08:43:15;;;;;;;12.00;9.30;;;32.60;69.00;;;;;;5059013;28;20048;-93
2023/06/24 08:45:40;;;;;;;19.67;8.95;;;32.90;67.90;;;;;;5058025;28;20040;-91
2023/06/24 08:48:06;;;;;;;9.15;8.13;;;33.40;65.50;;;;;;5059304;28;20017;-92
2023/06/24 08:50:40;;;;;;;15.77;7.28;;;33.20;64.90;;;;;;5054767;28;20052;-94
2023/06/24 08:53:10;;;;;;;13.80;8.60;;;33.20;65.10;;;;;;5055566;28;20075;-92
2023/06/24 08:55:46;;;;;;;13.65;7.15;;;33.50;65.00;;;;;;5055414;28;20094;-92
2023/06/24 08:58:13;;;;;;;9.88;7.45;;;33.60;63.90;;;;;;5054964;28;20025;-93
2023/06/24 09:00:39;;;;;;;10.25;7.55;;;33.60;63.50;;;;;;5056563;28;20370;-93
2023/06/24 09:03:04;;;;;;;12.40;7.80;;;33.90;61.40;;;;;;5055418;28;20029;-91
2023/06/24 09:05:30;;;;;;;19.30;7.13;;;33.80;62.60;;;;;;5054561;28;20025;-94
2023/06/24 09:07:56;;;;;;;11.23;6.90;;;33.30;62.80;;;;;;5055192;28;20028;-93
2023/06/24 09:10:37;;;;;;;10.13;7.15;;;32.90;62.20;;;;;;5053808;28;20025;-93
2023/06/24 09:13:04;;;;;;;9.25;5.65;;;32.80;64.60;;;;;;5054768;28;20401;-93
2023/06/24 09:15:32;;;;;;;11.88;5.13;;;32.60;64.80;;;;;;5055962;28;20041;-93
2023/06/24 09:18:00;;;;;;;5.85;4.65;;;32.70;64.70;;;;;;5058013;28;20076;-91
2023/06/24 09:20:30;;;;;;;13.52;3.90;;;33.10;64.20;;;;;;5053792;28;20048;-92
2023/06/24 09:23:03;;;;;;;8.93;3.90;;;33.40;64.60;;;;;;5053567;28;20037;-92
2023/06/24 09:25:29;;;;;;;8.32;3.83;;;34.00;65.00;;;;;;5063307;28;20057;-93
2023/06/24 09:28:00;;;;;;;13.13;4.22;;;34.30;64.30;;;;;;5057019;28;20020;-91
2023/06/24 09:30:25;;;;;;;8.50;4.40;;;34.50;62.00;;;;;;5057975;28;20528;-90
2023/06/24 09:32:52;;;;;;;5.28;4.07;;;34.60;61.50;;;;;;5075464;28;20024;-94
2023/06/24 09:35:20;;;;;;;8.88;3.83;;;34.80;59.30;;;;;;5057077;28;20036;-91
2023/06/24 09:37:53;;;;;;;12.90;3.90;;;34.80;59.20;;;;;;5056368;28;20490;-92
2023/06/24 09:40:19;;;;;;;8.70;3.92;;;35.00;60.00;;;;;;5075309;28;20028;-93
2023/06/24 09:43:03;;;;;;;7.53;3.95;;;35.30;58.60;;;;;;5076271;28;20074;-91
2023/06/24 09:45:30;;;;;;;6.68;3.40;;;35.10;57.90;;;;;;5057157;28;20063;-92
2023/06/24 09:47:57;;;;;;;3.45;2.80;;;34.50;58.50;;;;;;5059342;28;20033;-92
2023/06/24 09:50:23;;;;;;;6.80;2.35;;;34.20;59.80;;;;;;5085472;28;20021;-93
2023/06/24 09:52:51;;;;;;;4.68;2.97;;;34.10;60.20;;;;;;5098336;28;20020;-92
2023/06/24 09:55:18;;;;;;;5.25;2.80;;;34.20;60.30;;;;;;5094656;28;20020;-92
2023/06/24 09:57:50;;;;;;;7.93;2.80;;;34.60;59.50;;;;;;5092236;28;20043;-91
2023/06/24 10:00:18;;;;;;;7.57;2.30;;;34.80;58.40;;;;;;5079420;28;20036;-92
2023/06/24 10:02:46;;;;;;;4.80;2.15;;;34.20;59.30;;;;;;5058365;28;20445;-93
2023/06/24 10:05:13;;;;;;;3.67;1.35;;;34.00;57.20;;;;;;5077263;28;20028;-91
2023/06/24 10:07:40;;;;;;;3.42;1.60;;;33.60;58.50;;;;;;5056440;28;20145;-91
2023/06/24 10:10:06;;;;;;;9.15;1.65;;;33.30;60.60;;;;;;5073960;28;20041;-91
2023/06/24 10:12:33;;;;;;;3.92;1.73;;;33.10;61.70;;;;;;5073618;28;20560;-92
2023/06/24 10:15:00;;;;;;;5.47;4.60;;;32.90;63.80;;;;;;5073750;28;20032;-94
2023/06/24 10:17:26;;;;;;;8.50;7.05;;;32.70;62.10;;;;;;5056467;28;20029;-92
2023/06/24 10:19:55;;;;;;;3.90;1.83;;;32.60;62.50;;;;;;5055455;28;20542;-92
2023/06/24 10:22:25;;;;;;;3.42;1.50;;;32.40;62.40;;;;;;5055519;28;20063;-91
2023/06/24 10:24:52;;;;;;;6.88;1.30;;;31.90;64.20;;;;;;5051470;28;20072;-92
2023/06/24 10:27:23;;;;;;;3.35;1.50;;;31.50;66.50;;;;;;5052727;28;20022;-93
2023/06/24 10:29:55;;;;;;;1.67;1.10;;;31.50;65.50;;;;;;5056114;28;20036;-90
2023/06/24 10:32:23;;;;;;;8.55;2.80;;;31.70;64.80;;;;;;5057901;28;20028;-92
2023/06/24 10:34:57;;;;;;;3.60;1.27;;;31.70;64.90;;;;;;5052153;28;20473;-90
2023/06/24 10:37:25;;;;;;;3.03;1.20;;;31.60;65.30;;;;;;5061482;28;20028;-91
2023/06/24 10:39:56;;;;;;;1.92;1.15;;;31.30;67.00;;;;;;5054189;28;20078;-93
2023/06/24 10:42:43;;;;;;;2.33;1.23;;;31.20;67.60;;;;;;5051778;28;20036;-93
2023/06/24 10:45:09;;;;;;;2.63;1.10;;;31.10;69.20;;;;;;5054382;28;20028;-92
2023/06/24 10:47:36;;;;;;;6.28;1.30;;;31.10;69.10;;;;;;5053160;28;20500;-94
2023/06/24 10:50:03;;;;;;;4.57;1.20;;;31.00;68.50;;;;;;5065584;28;20036;-93
2023/06/24 10:52:29;;;;;;;4.60;1.25;;;30.80;69.00;;;;;;5070751;28;20493;-92
2023/06/24 10:54:57;;;;;;;8.05;1.05;;;30.90;70.00;;;;;;5062492;28;20126;-92
2023/06/24 10:57:25;;;;;;;3.70;1.58;;;30.90;68.80;;;;;;5056560;28;20083;-93
2023/06/24 10:59:52;;;;;;;3.30;1.00;;;30.70;68.10;;;;;;5057987;28;20057;-92
2023/06/24 11:02:20;;;;;;;3.67;1.45;;;30.60;70.00;;;;;;5058091;28;20029;-92
2023/06/24 11:04:47;;;;;;;1.88;0.95;;;30.60;70.20;;;;;;5059085;28;20032;-93
2023/06/24 11:07:14;;;;;;;2.78;1.13;;;30.60;69.90;;;;;;5057975;28;20151;-92
2023/06/24 11:09:54;;;;;;;2.45;1.10;;;30.50;69.50;;;;;;5061680;28;20028;-92
2023/06/24 11:12:25;;;;;;;4.70;1.20;;;30.50;70.90;;;;;;5056002;28;20029;-93
2023/06/24 11:14:51;;;;;;;3.33;1.27;;;30.60;71.00;;;;;;5054596;28;20068;-94
2023/06/24 11:17:19;;;;;;;3.13;1.05;;;30.30;70.70;;;;;;5057814;28;20555;-92
2023/06/24 11:19:45;;;;;;;3.38;0.82;;;30.00;71.60;;;;;;5053817;28;20377;-92
2023/06/24 11:22:10;;;;;;;3.45;0.95;;;29.60;73.20;;;;;;5055823;28;20028;-92
2023/06/24 11:24:37;;;;;;;2.47;1.00;;;29.50;73.50;;;;;;5062576;28;20032;-92
2023/06/24 11:27:04;;;;;;;3.60;1.00;;;29.50;74.20;;;;;;5064725;28;20032;-92
2023/06/24 11:29:31;;;;;;;2.80;1.23;;;29.60;73.20;;;;;;5069099;28;20027;-92
2023/06/24 11:31:56;;;;;;;3.20;1.30;;;29.60;73.30;;;;;;5064124;28;20651;-92
2023/06/24 11:34:22;;;;;;;7.97;1.60;;;29.50;73.30;;;;;;5058917;28;20021;-92
2023/06/24 11:36:48;;;;;;;5.93;1.33;;;29.40;74.30;;;;;;5061988;28;20021;-92
2023/06/24 11:39:22;;;;;;;4.30;1.10;;;29.40;73.80;;;;;;5063360;28;20401;-92
2023/06/24 11:41:48;;;;;;;3.83;1.75;;;29.60;73.70;;;;;;5064398;28;20024;-94
2023/06/24 11:44:13;;;;;;;3.80;1.25;;;29.80;73.90;;;;;;5078535;28;20028;-92
2023/06/24 11:46:40;;;;;;;5.30;1.30;;;29.90;73.00;;;;;;5080747;28;20117;-94
2023/06/24 11:49:07;;;;;;;2.10;0.90;;;29.80;72.50;;;;;;5066692;28;20021;-91
2023/06/24 11:51:34;;;;;;;4.45;1.40;;;29.80;73.60;;;;;;5066136;28;20031;-92
2023/06/24 11:54:05;;;;;;;4.07;1.38;;;29.70;73.50;;;;;;5063753;28;20017;-92
2023/06/24 11:56:41;;;;;;;3.80;1.13;;;29.80;75.10;;;;;;5062931;28;20066;-92
2023/06/24 11:59:17;;;;;;;3.50;1.20;;;29.90;73.00;;;;;;5059833;28;20021;-92
2023/06/24 12:01:43;;;;;;;3.00;1.35;;;29.80;71.40;;;;;;5059672;28;20028;-93
2023/06/24 12:04:13;;;;;;;2.33;1.20;;;29.70;73.30;;;;;;5077255;28;20028;-92
2023/06/24 12:06:43;;;;;;;2.33;1.10;;;29.60;74.10;;;;;;5059581;28;20050;-92
2023/06/24 12:09:10;;;;;;;5.38;1.20;;;29.60;75.20;;;;;;5079388;28;20039;-93
2023/06/24 12:11:36;;;;;;;3.33;1.17;;;29.70;75.60;;;;;;5060380;28;20369;-92
2023/06/24 12:14:02;;;;;;;4.78;1.55;;;29.80;75.90;;;;;;5077233;28;20021;-91
2023/06/24 12:16:29;;;;;;;2.95;1.23;;;29.80;73.10;;;;;;5058756;28;20036;-92
2023/06/24 12:18:54;;;;;;;3.53;0.90;;;29.70;72.60;;;;;;5060353;28;20078;-93
2023/06/24 12:21:20;;;;;;;3.35;1.25;;;29.70;75.40;;;;;;5061409;28;20032;-93
2023/06/24 12:23:46;;;;;;;1.80;1.05;;;29.70;76.20;;;;;;5080158;28;20032;-92
2023/06/24 12:26:12;;;;;;;4.43;1.15;;;29.80;75.90;;;;;;5062284;28;20059;-93
2023/06/24 12:28:37;;;;;;;3.58;0.88;;;29.80;75.10;;;;;;5079001;28;20035;-94
2023/06/24 12:31:05;;;;;;;4.07;1.58;;;29.90;74.90;;;;;;5063207;28;20120;-93
2023/06/24 12:33:30;;;;;;;4.60;1.00;;;29.80;76.60;;;;;;5062345;28;20131;-92
2023/06/24 12:35:56;;;;;;;7.97;1.30;;;29.90;75.20;;;;;;5066097;28;20068;-92
2023/06/24 12:38:23;;;;;;;4.05;0.90;;;29.80;74.20;;;;;;5066038;28;20024;-92
2023/06/24 12:40:49;;;;;;;3.53;1.08;;;29.80;75.90;;;;;;5062476;28;20115;-92
2023/06/24 12:43:15;;;;;;;4.20;1.27;;;29.80;75.50;;;;;;5082113;28;20048;-92
2023/06/24 12:45:44;;;;;;;5.82;0.90;;;29.80;76.00;;;;;;5062812;28;20029;-93
2023/06/24 12:48:10;;;;;;;6.55;1.27;;;29.80;75.60;;;;;;5062395;28;20027;-92
2023/06/24 12:50:36;;;;;;;8.30;1.35;;;29.80;75.50;;;;;;5058486;28;20033;-92
2023/06/24 12:53:03;;;;;;;5.40;1.60;;;29.80;75.70;;;;;;5061448;28;20017;-93
2023/06/24 12:55:29;;;;;;;3.42;1.25;;;29.90;75.80;;;;;;5082696;28;20043;-92
2023/06/24 12:57:55;;;;;;;2.58;1.20;;;29.90;73.40;;;;;;5079195;28;20031;-93
2023/06/24 13:00:22;;;;;;;2.20;0.80;;;29.80;74.10;;;;;;5062919;28;20064;-93
2023/06/24 13:02:48;;;;;;;7.82;1.98;;;29.80;74.20;;;;;;5066825;28;20015;-92
2023/06/24 13:05:14;;;;;;;6.90;0.90;;;29.80;74.50;;;;;;5080930;28;20020;-92
2023/06/24 13:07:39;;;;;;;3.25;1.15;;;29.80;74.30;;;;;;5074823;28;20025;-93
2023/06/24 13:10:06;;;;;;;3.33;1.27;;;29.80;73.80;;;;;;5070509;28;20035;-92
2023/06/24 13:12:35;;;;;;;2.38;1.42;;;29.80;74.50;;;;;;5079926;28;20045;-93
2023/06/24 13:15:04;;;;;;;11.50;1.48;;;29.70;74.60;;;;;;5064201;28;20123;-92
2023/06/24 13:17:29;;;;;;;5.20;1.33;;;29.70;74.70;;;;;;5061084;28;20532;-92
2023/06/24 13:19:56;;;;;;;4.68;1.20;;;29.70;76.70;;;;;;5061675;28;20023;-93
2023/06/24 13:22:22;;;;;;;3.78;1.02;;;29.70;76.80;;;;;;5062460;28;20025;-93
2023/06/24 13:24:47;;;;;;;4.63;1.70;;;29.80;74.90;;;;;;5082188;28;20044;-93
2023/06/24 13:27:13;;;;;;;2.63;1.10;;;29.90;74.10;;;;;;5097526;28;20009;-89
2023/06/24 13:29:39;;;;;;;6.05;1.45;;;29.90;72.90;;;;;;5081142;28;20096;-89
2023/06/24 13:32:05;;;;;;;3.20;1.20;;;29.90;73.20;;;;;;5081346;28;20020;-88
2023/06/24 13:34:30;;;;;;;2.85;1.20;;;29.90;74.50;;;;;;5098431;28;20443;-89
2023/06/24 13:36:56;;;;;;;5.45;1.35;;;30.00;73.40;;;;;;5076566;28;20036;-93
2023/06/24 13:39:25;;;;;;;3.72;1.00;;;30.00;74.20;;;;;;5083379;28;20028;-93
2023/06/24 13:41:52;;;;;;;10.88;1.20;;;30.10;75.00;;;;;;5082946;28;20530;-93
2023/06/24 13:44:18;;;;;;;1.73;0.93;;;30.00;74.80;;;;;;5078122;28;20020;-94
2023/06/24 13:46:44;;;;;;;3.35;0.82;;;29.90;76.00;;;;;;5079096;28;20020;-94
2023/06/24 13:49:10;;;;;;;4.95;1.30;;;30.00;75.10;;;;;;5062444;28;20036;-92
2023/06/24 13:51:36;;;;;;;4.97;1.15;;;30.00;74.40;;;;;;5050394;28;20058;-93
2023/06/24 13:54:02;;;;;;;6.43;1.30;;;30.00;72.60;;;;;;5059349;28;20036;-94
2023/06/24 13:56:28;;;;;;;3.95;1.00;;;30.00;72.80;;;;;;5058812;28;20071;-93
2023/06/24 13:58:54;;;;;;;4.80;1.67;;;30.00;72.60;;;;;;5076732;28;20025;-92
2023/06/24 14:01:21;;;;;;;4.40;1.13;;;30.00;73.40;;;;;;5062044;28;20081;-94
2023/06/24 14:03:49;;;;;;;6.32;1.40;;;30.00;75.00;;;;;;5059132;28;20032;-93
2023/06/24 14:06:17;;;;;;;4.30;1.17;;;30.00;73.90;;;;;;5078567;28;20061;-94
2023/06/24 14:08:43;;;;;;;6.70;1.45;;;30.10;74.20;;;;;;5078729;28;20029;-94
2023/06/24 14:11:11;;;;;;;5.50;1.15;;;30.10;74.40;;;;;;5058136;28;20028;-93
2023/06/24 14:13:36;;;;;;;4.18;1.05;;;30.00;73.30;;;;;;5058141;28;20036;-94
2023/06/24 14:16:03;;;;;;;3.13;1.15;;;30.00;74.00;;;;;;5059359;28;20094;-93
2023/06/24 14:18:31;;;;;;;6.00;1.27;;;30.00;73.60;;;;;;5078443;28;20024;-93
2023/06/24 14:20:58;;;;;;;7.70;1.38;;;29.90;74.40;;;;;;5058884;28;20021;-93
2023/06/24 14:23:25;;;;;;;4.97;1.40;;;29.90;73.30;;;;;;5059885;28;20017;-94
2023/06/24 14:25:51;;;;;;;6.60;1.50;;;29.80;73.50;;;;;;5057506;28;20067;-93
2023/06/24 14:28:17;;;;;;;9.05;2.72;;;29.50;74.00;;;;;;5074176;28;20016;-92
2023/06/24 14:30:43;;;;;;;5.85;1.42;;;29.50;75.80;;;;;;5057780;28;20052;-94
2023/06/24 14:33:08;;;;;;;7.43;1.48;;;29.40;75.80;;;;;;5058451;28;20021;-93
2023/06/24 14:35:34;;;;;;;3.90;1.55;;;29.30;75.00;;;;;;5076609;28;20032;-93
2023/06/24 14:38:00;;;;;;;12.98;1.17;;;29.20;75.80;;;;;;5065003;28;20100;-93
2023/06/24 14:40:25;;;;;;;4.03;1.60;;;29.20;76.00;;;;;;5059763;28;20060;-93
2023/06/24 14:42:51;;;;;;;5.93;1.50;;;29.10;76.30;;;;;;5061236;28;20028;-94
2023/06/24 14:45:17;;;;;;;8.95;1.45;;;29.10;76.60;;;;;;5081361;28;20472;-94
2023/06/24 14:47:42;;;;;;;6.93;1.33;;;29.10;77.20;;;;;;5069255;28;20033;-92
2023/06/24 14:50:08;;;;;;;4.97;1.52;;;29.10;77.00;;;;;;5062505;28;20028;-94
2023/06/24 14:52:34;;;;;;;3.22;1.25;;;29.10;75.90;;;;;;5064575;28;20033;-94
2023/06/24 14:55:00;;;;;;;4.32;1.40;;;29.20;75.30;;;;;;5084449;28;20111;-95
2023/06/24 14:57:25;;;;;;;6.75;1.40;;;29.20;75.50;;;;;;5059941;28;20502;-93
2023/06/24 14:59:51;;;;;;;6.80;1.92;;;29.20;76.50;;;;;;5058495;28;20532;-93
2023/06/24 15:02:17;;;;;;;4.28;1.23;;;29.30;76.80;;;;;;5061334;28;20443;-93
2023/06/24 15:04:43;;;;;;;5.38;1.40;;;29.20;77.00;;;;;;5067503;28;20021;-93
2023/06/24 15:07:09;;;;;;;5.72;1.10;;;29.20;75.00;;;;;;5076656;28;20020;-94
2023/06/24 15:09:34;;;;;;;4.00;1.52;;;29.00;75.40;;;;;;5059488;28;20043;-93
2023/06/24 15:12:01;;;;;;;5.47;1.63;;;28.90;76.30;;;;;;5060737;28;20059;-94
2023/06/24 15:14:27;;;;;;;10.00;1.67;;;28.90;76.60;;;;;;5079003;28;20029;-94
2023/06/24 15:16:53;;;;;;;5.00;1.48;;;28.90;75.60;;;;;;5061208;28;20063;-95
2023/06/24 15:19:19;;;;;;;5.97;1.30;;;28.80;75.50;;;;;;5067702;28;20035;-94
2023/06/24 15:21:45;;;;;;;4.07;1.20;;;28.70;76.00;;;;;;5081987;28;20020;-93
2023/06/24 15:24:11;;;;;;;5.88;1.35;;;28.70;76.50;;;;;;5080584;28;20021;-94
2023/06/24 15:26:36;;;;;;;3.42;1.17;;;28.70;76.50;;;;;;5077842;28;20127;-94
2023/06/24 15:29:02;;;;;;;6.13;1.42;;;28.60;76.90;;;;;;5076043;28;20446;-94
2023/06/24 15:31:28;;;;;;;6.78;1.27;;;28.50;77.00;;;;;;5074634;28;20013;-93
2023/06/24 15:33:54;;;;;;;5.05;1.25;;;28.40;77.90;;;;;;5074849;28;20035;-94
2023/06/24 15:36:22;;;;;;;4.90;1.42;;;28.30;77.50;;;;;;5074207;28;20146;-94
2023/06/24 15:38:48;;;;;;;5.53;1.35;;;28.40;79.00;;;;;;5055613;28;20489;-92
2023/06/24 15:41:14;;;;;;;6.78;1.98;;;28.30;79.10;;;;;;5056216;28;20029;-91
2023/06/24 15:43:40;;;;;;;4.78;1.08;;;28.30;78.10;;;;;;5073838;28;20016;-92
2023/06/24 15:46:05;;;;;;;4.70;1.20;;;28.20;78.00;;;;;;5074424;28;20025;-93
2023/06/24 15:48:31;;;;;;;3.33;1.13;;;28.20;78.50;;;;;;5075586;28;20104;-92
2023/06/24 15:50:59;;;;;;;8.35;1.70;;;28.10;79.20;;;;;;5055474;28;20373;-93
2023/06/24 15:53:25;;;;;;;7.15;1.38;;;28.00;80.00;;;;;;5060266;28;20031;-92
2023/06/24 15:55:51;;;;;;;3.22;1.27;;;28.00;79.10;;;;;;5075924;28;20032;-92
2023/06/24 15:58:16;;;;;;;5.95;1.70;;;28.00;79.30;;;;;;5073983;28;20518;-92
2023/06/24 16:00:42;;;;;;;5.20;1.48;;;27.90;80.00;;;;;;5073392;28;20039;-93
2023/06/24 16:03:08;;;;;;;5.65;1.38;;;28.00;80.10;;;;;;5055188;28;20119;-93
2023/06/24 16:05:33;;;;;;;4.82;1.25;;;28.00;80.00;;;;;;5057724;28;20058;-93